createdAt,value
2017-10-26T00:02:20.894Z,89.37
2017-10-26T00:04:48.282Z,89.40
2017-10-26T00:07:15.678Z,89.61
2017-10-26T00:09:43.071Z,89.69
2017-10-26T00:12:10.478Z,89.45
2017-10-26T00:14:37.883Z,89.39
2017-10-26T00:17:05.290Z,89.58
2017-10-26T00:19:32.697Z,89.66
2017-10-26T00:22:00.094Z,89.68
2017-10-26T00:24:27.502Z,89.58
2017-10-26T00:26:54.894Z,89.44
2017-10-26T00:29:22.286Z,89.32
2017-10-26T00:31:49.688Z,89.37
2017-10-26T00:34:17.078Z,89.56
2017-10-26T00:36:44.482Z,90.10
2017-10-26T00:39:11.875Z,90.04
2017-10-26T00:41:39.274Z,89.96
2017-10-26T00:44:06.674Z,90.13
2017-10-26T00:46:34.078Z,89.99
2017-10-26T00:49:01.483Z,89.95
2017-10-26T00:51:28.883Z,89.72
2017-10-26T00:53:56.278Z,89.58
2017-10-26T00:56:23.683Z,89.54
2017-10-26T00:58:51.076Z,89.44
2017-10-26T01:01:18.484Z,89.42
2017-10-26T01:03:45.870Z,89.51
2017-10-26T01:06:13.263Z,89.62
2017-10-26T01:08:40.668Z,89.61
2017-10-26T01:11:08.054Z,89.78
2017-10-26T01:13:35.462Z,89.95
2017-10-26T01:16:02.890Z,90.03
2017-10-26T01:18:30.281Z,89.99
2017-10-26T01:20:57.684Z,90.05
2017-10-26T01:23:25.070Z,90.04
2017-10-26T01:25:52.478Z,89.99
2017-10-26T01:28:19.876Z,89.97
2017-10-26T01:30:47.262Z,89.93
2017-10-26T01:33:14.675Z,89.96
2017-10-26T01:35:42.063Z,89.96
2017-10-26T01:38:09.471Z,90.05
2017-10-26T01:40:36.862Z,90.12
2017-10-26T01:43:04.286Z,90.48
2017-10-26T01:45:31.661Z,90.32
2017-10-26T01:47:59.058Z,90.23
2017-10-26T01:50:26.466Z,90.36
2017-10-26T01:52:53.851Z,90.28
2017-10-26T01:55:21.243Z,90.29
2017-10-26T01:57:48.646Z,90.52
2017-10-26T02:00:16.095Z,90.58
2017-10-26T02:02:43.494Z,90.53
2017-10-26T02:05:10.890Z,90.43
2017-10-26T02:07:38.282Z,90.80
2017-10-26T02:10:05.678Z,91.27
2017-10-26T02:12:33.070Z,91.00
2017-10-26T02:15:00.462Z,90.69
2017-10-26T02:17:27.879Z,90.30
2017-10-26T02:19:55.267Z,90.37
2017-10-26T02:22:22.671Z,90.41
2017-10-26T02:24:50.070Z,90.47
2017-10-26T02:27:17.463Z,90.56
2017-10-26T02:29:56.686Z,90.56
2017-10-26T02:32:24.080Z,90.53
2017-10-26T02:34:51.478Z,90.53
2017-10-26T02:37:18.879Z,90.61
2017-10-26T02:39:46.271Z,90.66
2017-10-26T02:42:13.675Z,90.49
2017-10-26T02:44:41.062Z,90.59
2017-10-26T02:47:08.454Z,90.70
2017-10-26T02:49:35.854Z,90.72
2017-10-26T02:52:03.246Z,90.87
2017-10-26T02:54:30.658Z,90.86
2017-10-26T02:56:58.055Z,90.79
2017-10-26T02:59:25.454Z,90.92
2017-10-26T03:01:52.852Z,90.94
2017-10-26T03:04:20.250Z,91.06
2017-10-26T03:06:47.707Z,91.05
2017-10-26T03:09:15.083Z,91.05
2017-10-26T03:11:42.475Z,91.05
2017-10-26T03:14:09.882Z,91.06
2017-10-26T03:16:37.274Z,91.07
2017-10-26T03:19:04.685Z,90.87
2017-10-26T03:21:32.074Z,90.91
2017-10-26T03:23:59.484Z,90.85
2017-10-26T03:26:26.880Z,90.91
2017-10-26T03:28:54.271Z,90.96
2017-10-26T03:31:21.681Z,91.01
2017-10-26T03:33:49.098Z,90.96
2017-10-26T03:36:16.502Z,90.98
2017-10-26T03:38:43.899Z,91.03
2017-10-26T03:41:11.287Z,91.09
2017-10-26T03:43:38.699Z,91.13
2017-10-26T03:46:06.097Z,91.10
2017-10-26T03:48:33.490Z,91.15
2017-10-26T03:51:00.885Z,91.06
2017-10-26T03:53:28.274Z,91.00
2017-10-26T03:55:55.690Z,90.81
2017-10-26T03:58:23.087Z,90.81
2017-10-26T04:00:50.479Z,90.97
2017-10-26T04:03:17.877Z,91.01
2017-10-26T04:05:45.998Z,91.09
2017-10-26T04:08:13.402Z,91.11
2017-10-26T04:10:40.795Z,90.88
2017-10-26T04:13:08.196Z,90.85
2017-10-26T04:15:35.602Z,90.86
2017-10-26T04:18:03.007Z,90.87
2017-10-26T04:20:30.435Z,90.91
2017-10-26T04:22:57.838Z,90.95
2017-10-26T04:25:25.234Z,91.16
2017-10-26T04:27:52.634Z,91.37
2017-10-26T04:30:20.043Z,91.57
2017-10-26T04:32:47.462Z,91.61
2017-10-26T04:35:14.876Z,91.86
2017-10-26T04:37:42.271Z,91.59
2017-10-26T04:40:09.686Z,91.42
2017-10-26T04:42:37.084Z,91.57
2017-10-26T04:45:04.492Z,91.60
2017-10-26T04:47:31.923Z,91.64
2017-10-26T04:49:59.320Z,91.60
2017-10-26T04:52:26.744Z,91.58
2017-10-26T04:54:54.157Z,91.56
2017-10-26T04:57:21.566Z,91.60
2017-10-26T04:59:48.954Z,91.58
2017-10-26T05:02:16.342Z,91.62
2017-10-26T05:04:43.746Z,91.53
2017-10-26T05:07:11.138Z,91.59
2017-10-26T05:09:38.552Z,91.59
2017-10-26T05:12:05.941Z,91.47
2017-10-26T05:14:33.374Z,91.56
2017-10-26T05:17:00.754Z,91.58
2017-10-26T05:19:28.149Z,91.52
2017-10-26T05:21:55.547Z,91.51
2017-10-26T05:24:22.939Z,91.46
2017-10-26T05:26:50.333Z,91.41
2017-10-26T05:29:17.730Z,91.37
2017-10-26T05:31:45.126Z,91.44
2017-10-26T05:34:12.531Z,91.33
2017-10-26T05:36:39.922Z,91.36
2017-10-26T05:39:07.378Z,91.50
2017-10-26T05:41:34.782Z,91.46
2017-10-26T05:44:02.178Z,91.46
2017-10-26T05:46:29.590Z,91.36
2017-10-26T05:48:56.983Z,91.37
2017-10-26T05:51:24.374Z,91.39
2017-10-26T05:53:51.830Z,91.41
2017-10-26T05:56:19.207Z,91.33
2017-10-26T05:58:46.618Z,91.31
2017-10-26T06:01:14.010Z,91.24
2017-10-26T06:03:41.452Z,91.01
2017-10-26T06:06:09.452Z,91.09
2017-10-26T06:08:36.879Z,91.13
2017-10-26T06:11:04.278Z,91.14
2017-10-26T06:13:31.665Z,91.21
2017-10-26T06:15:59.067Z,91.18
2017-10-26T06:18:26.487Z,91.12
2017-10-26T06:20:53.874Z,91.22
2017-10-26T06:23:21.278Z,91.23
2017-10-26T06:25:48.676Z,91.21
2017-10-26T06:28:16.190Z,91.07
2017-10-26T06:30:43.670Z,91.11
2017-10-26T06:33:11.062Z,91.21
2017-10-26T06:35:38.470Z,91.10
2017-10-26T06:38:05.888Z,91.02
2017-10-26T06:40:33.288Z,90.63
2017-10-26T06:43:00.719Z,90.79
2017-10-26T06:45:28.134Z,90.61
2017-10-26T06:47:55.551Z,90.58
2017-10-26T06:50:23.118Z,90.50
2017-10-26T06:52:50.559Z,90.38
2017-10-26T06:55:18.059Z,90.43
2017-10-26T06:57:45.467Z,90.42
2017-10-26T07:00:12.874Z,90.47
2017-10-26T07:02:40.284Z,90.52
2017-10-26T07:05:07.682Z,90.57
2017-10-26T07:07:35.094Z,90.55
2017-10-26T07:10:02.491Z,90.51
2017-10-26T07:12:30.564Z,90.60
2017-10-26T07:14:57.958Z,90.48
2017-10-26T07:17:25.370Z,90.38
2017-10-26T07:19:52.783Z,90.26
2017-10-26T07:22:20.191Z,90.21
2017-10-26T07:24:47.644Z,90.21
2017-10-26T07:27:15.047Z,90.20
2017-10-26T07:29:42.459Z,90.15
2017-10-26T07:32:09.868Z,90.00
2017-10-26T07:34:37.301Z,89.96
2017-10-26T07:37:04.739Z,88.85
2017-10-26T07:39:32.188Z,88.72
2017-10-26T07:41:59.584Z,88.85
2017-10-26T07:44:27.019Z,88.90
2017-10-26T07:46:54.463Z,88.94
2017-10-26T07:49:21.869Z,88.76
2017-10-26T07:51:49.263Z,88.24
2017-10-26T07:54:16.663Z,87.79
2017-10-26T07:56:44.062Z,87.35
2017-10-26T07:59:11.468Z,87.29
2017-10-26T08:01:38.865Z,87.48
2017-10-26T08:04:06.255Z,87.65
2017-10-26T08:06:33.658Z,87.79
2017-10-26T08:09:01.047Z,87.94
2017-10-26T08:11:28.450Z,88.08
2017-10-26T08:13:55.850Z,88.12
2017-10-26T08:16:23.258Z,88.08
2017-10-26T08:18:50.650Z,88.01
2017-10-26T08:21:18.043Z,87.96
2017-10-26T08:23:45.454Z,87.72
2017-10-26T08:26:12.853Z,87.22
2017-10-26T08:28:40.248Z,85.98
2017-10-26T08:31:07.641Z,85.55
2017-10-26T08:33:35.043Z,84.59
2017-10-26T08:36:02.454Z,84.11
2017-10-26T08:38:29.851Z,83.87
2017-10-26T08:40:57.245Z,83.57
2017-10-26T08:43:24.649Z,82.88
2017-10-26T08:45:52.051Z,82.90
2017-10-26T08:48:19.458Z,82.38
2017-10-26T08:50:46.848Z,82.44
2017-10-26T08:53:14.245Z,81.99
2017-10-26T08:55:41.641Z,82.43
2017-10-26T08:58:09.034Z,83.13
2017-10-26T09:00:36.463Z,82.88
2017-10-26T09:03:03.858Z,83.03
2017-10-26T09:05:31.250Z,82.50
2017-10-26T09:07:58.649Z,82.35
2017-10-26T09:10:26.042Z,81.30
2017-10-26T09:12:53.457Z,81.50
2017-10-26T09:15:20.850Z,80.76
2017-10-26T09:17:48.246Z,80.64
2017-10-26T09:20:15.656Z,80.36
2017-10-26T09:22:43.246Z,80.02
2017-10-26T09:25:10.650Z,79.37
2017-10-26T09:27:38.041Z,79.20
2017-10-26T09:30:05.437Z,78.45
2017-10-26T09:32:32.834Z,76.71
2017-10-26T09:35:00.230Z,77.76
2017-10-26T09:37:27.637Z,77.88
2017-10-26T09:39:55.025Z,78.45
2017-10-26T09:42:22.434Z,79.13
2017-10-26T09:44:49.836Z,77.88
2017-10-26T09:47:17.218Z,78.85
2017-10-26T09:49:44.623Z,78.67
2017-10-26T09:52:12.017Z,79.38
2017-10-26T09:54:39.419Z,78.25
2017-10-26T09:57:06.807Z,78.59
2017-10-26T09:59:34.214Z,78.50
2017-10-26T10:02:01.622Z,78.58
2017-10-26T10:04:29.026Z,78.54
2017-10-26T10:06:56.438Z,77.84
2017-10-26T10:09:23.835Z,76.38
2017-10-26T10:11:51.234Z,74.90
2017-10-26T10:14:18.635Z,74.89
2017-10-26T10:16:46.038Z,75.99
2017-10-26T10:19:13.442Z,74.79
2017-10-26T10:21:40.843Z,75.07
2017-10-26T10:24:08.237Z,75.37
2017-10-26T10:26:36.462Z,75.27
2017-10-26T10:29:03.849Z,75.11
2017-10-26T10:31:31.259Z,75.03
2017-10-26T10:33:58.646Z,74.59
2017-10-26T10:36:26.038Z,75.03
2017-10-26T10:38:53.441Z,75.60
2017-10-26T10:41:20.833Z,73.92
2017-10-26T10:43:48.243Z,74.14
2017-10-26T10:46:15.641Z,74.60
2017-10-26T10:48:43.036Z,74.97
2017-10-26T10:51:10.433Z,75.12
2017-10-26T10:53:37.840Z,73.87
2017-10-26T10:56:05.247Z,74.46
2017-10-26T10:58:32.643Z,74.16
2017-10-26T11:01:00.041Z,74.17
2017-10-26T11:03:27.435Z,73.11
2017-10-26T11:05:54.826Z,73.80
2017-10-26T11:08:22.231Z,72.76
2017-10-26T11:10:49.632Z,73.35
2017-10-26T11:13:17.016Z,73.52
2017-10-26T11:15:44.414Z,73.17
2017-10-26T11:18:11.814Z,73.91
2017-10-26T11:20:39.222Z,74.00
2017-10-26T11:23:06.610Z,73.48
2017-10-26T11:25:34.006Z,73.10
2017-10-26T11:28:01.406Z,73.34
2017-10-26T11:30:28.826Z,73.61
2017-10-26T11:32:56.245Z,74.00
2017-10-26T11:35:23.632Z,73.43
2017-10-26T11:37:51.022Z,73.65
2017-10-26T11:40:18.418Z,73.44
2017-10-26T11:42:45.820Z,73.64
2017-10-26T11:45:13.231Z,73.55
2017-10-26T11:47:40.640Z,73.15
2017-10-26T11:50:08.014Z,72.73
2017-10-26T11:52:35.410Z,72.79
2017-10-26T11:55:02.825Z,73.45
2017-10-26T11:57:30.222Z,73.55
2017-10-26T11:59:57.642Z,73.10
2017-10-26T12:02:25.111Z,73.26
2017-10-26T12:04:52.531Z,73.67
2017-10-26T12:07:19.934Z,73.58
2017-10-26T12:09:54.552Z,73.58
2017-10-26T12:12:22.802Z,74.06
2017-10-26T12:14:50.201Z,73.27
2017-10-26T12:17:17.613Z,73.37
2017-10-26T12:19:45.045Z,73.32
2017-10-26T12:22:12.539Z,73.09
2017-10-26T12:24:39.964Z,72.99
2017-10-26T12:27:07.443Z,73.50
2017-10-26T12:29:34.855Z,74.22
2017-10-26T12:32:02.247Z,74.54
2017-10-26T12:34:29.722Z,74.09
2017-10-26T12:36:57.157Z,74.25
2017-10-26T12:39:24.559Z,74.82
2017-10-26T12:41:51.975Z,74.76
2017-10-26T12:44:19.371Z,74.79
2017-10-26T12:46:46.788Z,74.90
2017-10-26T12:49:14.202Z,74.80
2017-10-26T12:51:41.644Z,74.93
2017-10-26T12:54:09.070Z,74.60
2017-10-26T12:56:36.474Z,73.71
2017-10-26T12:59:03.884Z,73.48
2017-10-26T13:01:31.303Z,73.03
2017-10-26T13:03:58.702Z,73.41
2017-10-26T13:06:26.098Z,72.78
2017-10-26T13:08:53.491Z,72.22
2017-10-26T13:11:20.899Z,72.31
2017-10-26T13:13:48.294Z,72.19
2017-10-26T13:16:15.682Z,71.64
2017-10-26T13:18:43.933Z,70.88
2017-10-26T13:21:11.330Z,71.04
2017-10-26T13:23:38.738Z,70.45
2017-10-26T13:26:06.130Z,71.01
2017-10-26T13:28:33.527Z,71.29
2017-10-26T13:31:00.937Z,71.52
2017-10-26T13:33:28.338Z,71.25
2017-10-26T13:35:55.749Z,71.84
2017-10-26T13:38:23.146Z,70.90
2017-10-26T13:40:50.550Z,70.73
2017-10-26T13:43:17.962Z,71.46
2017-10-26T13:45:45.616Z,72.37
2017-10-26T13:48:13.038Z,73.16
2017-10-26T13:50:40.494Z,72.06
2017-10-26T13:53:07.908Z,72.20
2017-10-26T13:55:35.308Z,71.94
2017-10-26T13:58:02.703Z,72.13
2017-10-26T14:00:30.207Z,71.66
2017-10-26T14:02:57.608Z,72.31
2017-10-26T14:05:25.019Z,72.92
2017-10-26T14:07:52.442Z,72.94
2017-10-26T14:10:19.865Z,72.15
2017-10-26T14:12:47.338Z,71.83
2017-10-26T14:15:14.749Z,71.57
2017-10-26T14:17:42.162Z,71.71
2017-10-26T14:20:09.583Z,71.98
2017-10-26T14:22:37.139Z,71.79
2017-10-26T14:25:04.550Z,71.82
2017-10-26T14:27:31.962Z,71.24
2017-10-26T14:29:59.348Z,71.43
2017-10-26T14:32:26.760Z,71.68
2017-10-26T14:34:54.199Z,72.48
2017-10-26T14:37:21.599Z,72.05
2017-10-26T14:39:48.995Z,72.66
2017-10-26T14:42:16.395Z,73.20
2017-10-26T14:44:43.804Z,73.26
2017-10-26T14:47:11.450Z,72.95
2017-10-26T14:49:38.926Z,72.60
2017-10-26T14:52:06.334Z,72.75
2017-10-26T14:54:33.746Z,72.70
2017-10-26T14:57:01.137Z,73.03
2017-10-26T14:59:28.529Z,73.34
2017-10-26T15:01:57.917Z,73.54
2017-10-26T15:04:25.318Z,73.46
2017-10-26T15:06:52.718Z,73.29
2017-10-26T15:09:20.118Z,73.93
2017-10-26T15:11:47.533Z,73.29
2017-10-26T15:14:14.925Z,73.59
2017-10-26T15:16:42.347Z,74.40
2017-10-26T15:19:09.743Z,74.33
2017-10-26T15:21:37.143Z,74.22
2017-10-26T15:24:04.557Z,73.94
2017-10-26T15:26:31.962Z,74.21
2017-10-26T15:28:59.359Z,74.93
2017-10-26T15:31:26.766Z,75.44
2017-10-26T15:33:54.173Z,75.49
2017-10-26T15:36:21.562Z,75.74
2017-10-26T15:38:52.121Z,75.89
2017-10-26T15:41:19.526Z,75.61
2017-10-26T15:43:46.936Z,75.81
2017-10-26T15:46:14.362Z,75.84
2017-10-26T15:48:41.912Z,75.66
2017-10-26T15:51:09.362Z,76.08
2017-10-26T15:53:36.772Z,76.01
2017-10-26T15:56:04.164Z,76.05
2017-10-26T15:58:31.554Z,76.37
2017-10-26T16:00:59.091Z,76.22
2017-10-26T16:03:27.497Z,76.27
2017-10-26T16:05:54.895Z,76.73
2017-10-26T16:08:22.327Z,77.69
2017-10-26T16:10:49.723Z,78.24
2017-10-26T16:13:18.001Z,78.57
2017-10-26T16:15:45.410Z,79.01
2017-10-26T16:18:12.852Z,79.08
2017-10-26T16:20:40.240Z,80.10
2017-10-26T16:23:07.753Z,80.86
2017-10-26T16:25:35.162Z,82.09
2017-10-26T16:28:02.578Z,83.31
2017-10-26T16:30:29.994Z,83.87
2017-10-26T16:32:57.379Z,85.17
2017-10-26T16:35:24.785Z,85.88
2017-10-26T16:37:52.186Z,86.71
2017-10-26T16:40:19.580Z,87.07
2017-10-26T16:42:46.981Z,87.63
2017-10-26T16:45:14.386Z,88.42
2017-10-26T16:47:41.888Z,88.20
2017-10-26T16:50:09.329Z,88.21
2017-10-26T16:52:36.734Z,88.30
2017-10-26T16:55:04.128Z,88.28
2017-10-26T16:57:31.527Z,88.16
2017-10-26T16:59:58.937Z,88.38
2017-10-26T17:02:26.340Z,88.62
2017-10-26T17:04:53.747Z,89.80
2017-10-26T17:07:21.175Z,90.48
2017-10-26T17:09:48.582Z,90.45
2017-10-26T17:12:15.978Z,90.27
2017-10-26T17:14:43.384Z,90.48
2017-10-26T17:17:10.791Z,90.67
2017-10-26T17:19:38.191Z,90.97
2017-10-26T17:22:05.602Z,91.05
2017-10-26T17:24:33.005Z,90.58
2017-10-26T17:27:00.397Z,90.69
2017-10-26T17:29:27.816Z,90.92
2017-10-26T17:31:55.207Z,90.87
2017-10-26T17:34:22.606Z,90.72
2017-10-26T17:36:50.018Z,91.00
2017-10-26T17:39:17.447Z,91.35
2017-10-26T17:41:44.873Z,91.53
2017-10-26T17:44:12.269Z,91.64
2017-10-26T17:46:39.678Z,91.70
2017-10-26T17:49:07.882Z,91.61
2017-10-26T17:51:35.406Z,91.64
2017-10-26T17:54:02.790Z,91.72
2017-10-26T17:56:30.889Z,91.72
2017-10-26T17:58:58.338Z,91.76
2017-10-26T18:01:27.458Z,91.68
2017-10-26T18:03:56.940Z,91.67
2017-10-26T18:06:24.346Z,91.39
2017-10-26T18:08:51.766Z,91.65
2017-10-26T18:11:19.423Z,91.67
2017-10-26T18:13:46.842Z,91.63
2017-10-26T18:16:14.234Z,91.28
2017-10-26T18:18:42.182Z,91.14
2017-10-26T18:21:09.591Z,91.19
2017-10-26T18:23:36.998Z,91.50
2017-10-26T18:26:04.382Z,91.61
2017-10-26T18:28:31.799Z,91.75
2017-10-26T18:30:59.194Z,91.55
2017-10-26T18:33:26.586Z,90.45
2017-10-26T18:35:53.998Z,90.78
2017-10-26T18:38:21.399Z,91.08
2017-10-26T18:40:48.795Z,91.45
2017-10-26T18:43:16.206Z,91.23
2017-10-26T18:45:43.603Z,91.05
2017-10-26T18:48:11.650Z,90.76
2017-10-26T18:50:39.359Z,91.25
2017-10-26T18:53:06.980Z,91.17
2017-10-26T18:55:34.368Z,91.78
2017-10-26T18:58:02.871Z,91.76
2017-10-26T19:00:30.257Z,91.78
2017-10-26T19:02:57.650Z,91.99
2017-10-26T19:05:25.115Z,91.91
2017-10-26T19:07:52.516Z,92.29
2017-10-26T19:10:19.918Z,92.49
2017-10-26T19:12:47.445Z,92.85
2017-10-26T19:15:14.822Z,93.83
2017-10-26T19:17:42.222Z,94.18
2017-10-26T19:20:09.642Z,94.09
2017-10-26T19:22:37.029Z,94.47
2017-10-26T19:25:04.426Z,94.28
2017-10-26T19:27:31.846Z,94.27
2017-10-26T19:29:59.243Z,94.64
2017-10-26T19:32:26.644Z,94.46
2017-10-26T19:34:54.050Z,94.65
2017-10-26T19:37:21.541Z,94.58
2017-10-26T19:39:48.961Z,94.70
2017-10-26T19:42:16.404Z,94.62
2017-10-26T19:44:46.575Z,94.45
2017-10-26T19:47:13.963Z,94.44
2017-10-26T19:49:41.382Z,94.16
2017-10-26T19:52:08.794Z,94.02
2017-10-26T19:54:36.167Z,93.95
2017-10-26T19:57:03.589Z,93.84
2017-10-26T19:59:30.975Z,93.14
2017-10-26T20:01:58.386Z,93.18
2017-10-26T20:04:25.846Z,93.19
2017-10-26T20:06:53.279Z,93.00
2017-10-26T20:09:20.679Z,93.37
2017-10-26T20:11:48.248Z,93.19
2017-10-26T20:14:15.633Z,93.09
2017-10-26T20:16:43.022Z,93.11
2017-10-26T20:19:10.446Z,92.82
2017-10-26T20:21:37.851Z,92.72
2017-10-26T20:24:05.258Z,92.76
2017-10-26T20:26:32.678Z,92.89
2017-10-26T20:29:00.147Z,92.96
2017-10-26T20:31:27.547Z,92.98
2017-10-26T20:33:54.958Z,92.99
2017-10-26T20:36:22.356Z,92.72
2017-10-26T20:38:49.827Z,92.75
2017-10-26T20:41:17.235Z,92.50
2017-10-26T20:43:44.645Z,92.36
2017-10-26T20:46:12.039Z,92.58
2017-10-26T20:48:39.466Z,92.59
2017-10-26T20:51:12.462Z,92.32
2017-10-26T20:53:45.374Z,92.60
2017-10-26T20:56:18.382Z,92.52
2017-10-26T20:58:51.483Z,92.58
2017-10-26T21:01:24.586Z,92.77
2017-10-26T21:03:57.487Z,93.27
2017-10-26T21:06:24.918Z,93.56
2017-10-26T21:08:57.958Z,93.52
2017-10-26T21:11:30.928Z,93.41
2017-10-26T21:16:58.868Z,93.30
2017-10-26T21:19:26.295Z,93.14
2017-10-26T21:21:53.717Z,93.24
2017-10-26T21:24:21.110Z,93.13
2017-10-26T21:26:48.532Z,92.80
2017-10-26T21:29:15.995Z,93.08
2017-10-26T21:31:43.392Z,93.47
2017-10-26T21:34:10.799Z,93.59
2017-10-26T21:36:38.194Z,93.67
2017-10-26T21:39:05.587Z,93.40
2017-10-26T21:41:33.021Z,93.43
2017-10-26T21:44:00.404Z,93.22
2017-10-26T21:46:27.810Z,93.22
2017-10-26T21:48:55.225Z,93.21
2017-10-26T21:51:22.626Z,93.55
2017-10-26T21:53:50.025Z,93.69
2017-10-26T21:56:17.454Z,93.55
2017-10-26T21:58:44.853Z,93.30
2017-10-26T22:01:12.254Z,91.74
2017-10-26T22:03:39.684Z,91.93
2017-10-26T22:06:07.076Z,91.90
2017-10-26T22:08:34.474Z,92.62
2017-10-26T22:11:01.904Z,93.39
2017-10-26T22:13:29.290Z,92.41
2017-10-26T22:15:56.717Z,92.07
2017-10-26T22:18:24.146Z,92.52
2017-10-26T22:20:51.546Z,92.51
2017-10-26T22:23:18.994Z,92.28
2017-10-26T22:25:46.430Z,92.48
2017-10-26T22:28:13.834Z,92.86
2017-10-26T22:30:41.259Z,93.06
2017-10-26T22:33:08.671Z,92.77
2017-10-26T22:35:36.103Z,92.71
2017-10-26T22:38:03.519Z,93.22
2017-10-26T22:40:30.928Z,93.35
2017-10-26T22:42:58.326Z,93.13
2017-10-26T22:45:25.755Z,93.51
2017-10-26T22:47:53.158Z,93.24
2017-10-26T22:50:20.558Z,93.26
2017-10-26T22:52:47.947Z,93.29
2017-10-26T22:55:15.353Z,93.39
2017-10-26T22:57:42.754Z,93.17
2017-10-26T23:00:10.179Z,93.76
2017-10-26T23:02:37.610Z,93.37
2017-10-26T23:05:05.058Z,92.16
2017-10-26T23:07:32.458Z,92.36
2017-10-26T23:09:59.887Z,92.74
2017-10-26T23:12:27.294Z,92.84
2017-10-26T23:14:54.690Z,92.76
2017-10-26T23:17:22.117Z,92.57
2017-10-26T23:19:49.523Z,92.37
2017-10-26T23:22:16.910Z,92.59
2017-10-26T23:24:44.326Z,93.11
2017-10-26T23:27:11.734Z,93.54
2017-10-26T23:29:39.130Z,93.81
2017-10-26T23:32:06.536Z,93.53
2017-10-26T23:34:33.913Z,93.31
2017-10-26T23:37:01.312Z,92.86
2017-10-26T23:39:28.730Z,92.96
2017-10-26T23:41:56.130Z,92.71
2017-10-26T23:44:23.526Z,93.04
2017-10-26T23:46:50.934Z,94.12
2017-10-26T23:49:18.381Z,94.24
2017-10-26T23:51:45.779Z,94.21
2017-10-26T23:54:13.209Z,94.26
2017-10-26T23:56:40.598Z,94.31
2017-10-26T23:59:07.997Z,94.24
